createdAt,value
2018-09-20T00:00:09.295Z,99.90
2018-09-20T00:02:37.515Z,99.90
2018-09-20T00:05:05.731Z,99.90
2018-09-20T00:07:34.044Z,99.90
2018-09-20T00:10:02.310Z,99.90
2018-09-20T00:12:30.533Z,99.90
2018-09-20T00:14:58.766Z,99.90
2018-09-20T00:17:26.996Z,99.90
2018-09-20T00:19:55.199Z,99.90
2018-09-20T00:22:23.430Z,99.90
2018-09-20T00:24:51.663Z,99.90
2018-09-20T00:27:19.913Z,99.90
2018-09-20T00:29:48.148Z,99.90
2018-09-20T00:32:16.367Z,99.90
2018-09-20T00:34:44.600Z,99.90
2018-09-20T00:37:12.808Z,99.90
2018-09-20T00:39:41.039Z,99.90
2018-09-20T00:42:09.227Z,99.90
2018-09-20T00:44:37.602Z,99.90
2018-09-20T00:47:05.825Z,99.90
2018-09-20T00:49:34.039Z,99.90
2018-09-20T00:52:02.304Z,99.90
2018-09-20T00:54:30.548Z,99.90
2018-09-20T00:56:58.780Z,99.90
2018-09-20T00:59:27.002Z,99.90
2018-09-20T01:01:55.219Z,99.90
2018-09-20T01:04:23.489Z,99.90
2018-09-20T01:06:51.688Z,99.90
2018-09-20T01:09:19.927Z,99.90
2018-09-20T01:11:48.144Z,99.90
2018-09-20T01:14:16.389Z,99.90
2018-09-20T01:16:44.608Z,99.90
2018-09-20T01:19:12.924Z,99.90
2018-09-20T01:21:41.130Z,99.90
2018-09-20T01:24:09.352Z,99.90
2018-09-20T01:26:37.576Z,99.90
2018-09-20T01:29:05.807Z,99.90
2018-09-20T01:31:34.036Z,99.90
2018-09-20T01:34:02.272Z,99.90
2018-09-20T01:36:30.475Z,99.90
2018-09-20T01:38:58.726Z,99.90
2018-09-20T01:41:26.934Z,99.90
2018-09-20T01:43:55.621Z,99.90
2018-09-20T01:46:23.843Z,99.90
2018-09-20T01:48:52.168Z,99.90
2018-09-20T01:51:20.412Z,99.90
2018-09-20T01:53:48.659Z,99.90
2018-09-20T01:56:17.010Z,99.90
2018-09-20T01:58:46.279Z,99.90
2018-09-20T02:01:14.484Z,99.90
2018-09-20T02:03:42.700Z,99.90
2018-09-20T02:06:11.426Z,99.90
2018-09-20T02:08:39.664Z,99.90
2018-09-20T02:11:07.888Z,99.90
2018-09-20T02:13:36.136Z,99.90
2018-09-20T02:16:04.422Z,99.90
2018-09-20T02:18:32.740Z,99.90
2018-09-20T02:21:00.963Z,99.90
2018-09-20T02:23:29.216Z,99.90
2018-09-20T02:25:57.452Z,99.90
2018-09-20T02:28:25.700Z,99.90
2018-09-20T02:30:53.921Z,99.90
2018-09-20T02:33:22.124Z,99.90
2018-09-20T02:35:50.357Z,99.90
2018-09-20T02:38:18.567Z,99.90
2018-09-20T02:40:46.780Z,99.90
2018-09-20T02:43:14.995Z,99.90
2018-09-20T02:45:43.262Z,99.90
2018-09-20T02:48:11.483Z,99.90
2018-09-20T02:50:39.747Z,99.90
2018-09-20T02:53:07.952Z,99.90
2018-09-20T02:55:36.190Z,99.90
2018-09-20T02:58:04.422Z,99.90
2018-09-20T03:00:32.760Z,99.90
2018-09-20T03:03:00.993Z,99.90
2018-09-20T03:05:29.205Z,99.90
2018-09-20T03:07:58.301Z,99.90
2018-09-20T03:10:26.534Z,99.90
2018-09-20T03:12:54.780Z,99.90
2018-09-20T03:15:22.991Z,99.90
2018-09-20T03:17:51.283Z,99.90
2018-09-20T03:20:19.537Z,99.90
2018-09-20T03:22:47.759Z,99.90
2018-09-20T03:25:16.046Z,99.90
2018-09-20T03:27:44.303Z,99.90
2018-09-20T03:30:12.563Z,99.90
2018-09-20T03:32:40.778Z,99.90
2018-09-20T03:35:09.020Z,99.90
2018-09-20T03:37:37.276Z,99.90
2018-09-20T03:40:05.559Z,99.90
2018-09-20T03:42:33.775Z,99.90
2018-09-20T03:45:02.069Z,99.90
2018-09-20T03:47:30.295Z,99.90
2018-09-20T03:49:58.549Z,99.90
2018-09-20T03:52:26.755Z,99.90
2018-09-20T03:54:55.001Z,99.90
2018-09-20T03:57:23.205Z,99.90
2018-09-20T03:59:51.454Z,99.90
2018-09-20T04:02:19.667Z,99.90
2018-09-20T04:04:47.907Z,99.90
2018-09-20T04:07:16.268Z,99.90
2018-09-20T04:09:44.525Z,99.90
2018-09-20T04:12:12.745Z,99.90
2018-09-20T04:14:40.992Z,99.90
2018-09-20T04:17:09.199Z,99.90
2018-09-20T04:19:37.519Z,99.90
2018-09-20T04:22:05.737Z,99.90
2018-09-20T04:24:33.989Z,99.90
2018-09-20T04:27:02.203Z,99.90
2018-09-20T04:29:30.496Z,99.90
2018-09-20T04:31:58.884Z,99.90
2018-09-20T04:34:27.113Z,99.90
2018-09-20T04:36:55.351Z,99.90
2018-09-20T04:39:23.569Z,99.90
2018-09-20T04:41:51.842Z,99.90
2018-09-20T04:44:20.073Z,99.90
2018-09-20T04:46:48.296Z,99.90
2018-09-20T04:49:16.501Z,99.90
2018-09-20T04:51:44.809Z,99.90
2018-09-20T04:54:13.058Z,99.90
2018-09-20T04:56:41.320Z,99.90
2018-09-20T04:59:09.562Z,99.90
2018-09-20T05:01:37.804Z,99.90
2018-09-20T05:04:06.053Z,99.90
2018-09-20T05:06:34.357Z,99.90
2018-09-20T05:09:02.585Z,99.90
2018-09-20T05:11:30.817Z,99.90
2018-09-20T05:13:59.045Z,99.90
2018-09-20T05:16:27.417Z,99.90
2018-09-20T05:18:55.614Z,99.90
2018-09-20T05:21:23.856Z,99.90
2018-09-20T05:23:52.085Z,99.90
2018-09-20T05:26:20.352Z,99.90
2018-09-20T05:28:49.328Z,99.90
2018-09-20T05:31:17.571Z,99.90
2018-09-20T05:33:45.783Z,99.90
2018-09-20T05:36:14.014Z,99.90
2018-09-20T05:38:42.222Z,99.90
2018-09-20T05:41:10.470Z,99.90
2018-09-20T05:43:38.731Z,99.90
2018-09-20T05:46:07.212Z,99.90
2018-09-20T05:48:35.463Z,99.90
2018-09-20T05:51:03.704Z,99.90
2018-09-20T05:53:31.950Z,99.90
2018-09-20T05:56:01.695Z,99.90
2018-09-20T05:58:30.028Z,99.90
2018-09-20T06:00:58.312Z,99.90
2018-09-20T06:03:26.514Z,99.90
2018-09-20T06:05:54.883Z,99.90
2018-09-20T06:08:23.203Z,99.90
2018-09-20T06:10:51.447Z,99.90
2018-09-20T06:13:19.761Z,99.90
2018-09-20T06:15:48.066Z,99.90
2018-09-20T06:18:16.279Z,99.90
2018-09-20T06:20:44.491Z,99.90
2018-09-20T06:23:12.780Z,99.90
2018-09-20T06:25:41.017Z,99.90
2018-09-20T06:28:09.253Z,99.90
2018-09-20T06:30:38.445Z,99.90
2018-09-20T06:33:06.687Z,99.90
2018-09-20T06:35:34.962Z,99.90
2018-09-20T06:38:03.235Z,99.90
2018-09-20T06:40:31.435Z,99.90
2018-09-20T06:42:59.673Z,99.90
2018-09-20T06:45:27.872Z,99.90
2018-09-20T06:47:56.160Z,99.90
2018-09-20T06:50:24.436Z,99.90
2018-09-20T06:52:52.647Z,99.90
2018-09-20T06:55:20.851Z,99.90
2018-09-20T06:57:49.077Z,99.90
2018-09-20T07:00:17.296Z,99.90
2018-09-20T07:02:45.546Z,99.90
2018-09-20T07:05:13.776Z,99.90
2018-09-20T07:07:42.008Z,99.90
2018-09-20T07:10:10.214Z,99.90
2018-09-20T07:12:38.435Z,99.90
2018-09-20T07:15:07.324Z,99.90
2018-09-20T07:17:35.555Z,99.60
2018-09-20T07:20:03.791Z,98.00
2018-09-20T07:22:32.043Z,91.10
2018-09-20T07:25:00.261Z,73.80
2018-09-20T07:27:28.527Z,60.20
2018-09-20T07:29:56.750Z,53.00
2018-09-20T07:32:24.955Z,49.40
2018-09-20T07:34:53.175Z,47.40
2018-09-20T07:37:21.405Z,44.90
2018-09-20T07:39:49.612Z,43.60
2018-09-20T07:42:17.853Z,42.50
2018-09-20T07:44:46.066Z,40.90
2018-09-20T07:47:14.292Z,39.40
2018-09-20T07:49:42.513Z,39.20
2018-09-20T07:52:10.775Z,39.30
2018-09-20T07:54:38.989Z,39.80
2018-09-20T07:57:07.570Z,38.00
2018-09-20T07:59:35.814Z,38.30
2018-09-20T08:02:04.161Z,38.20
2018-09-20T08:04:32.356Z,35.60
2018-09-20T08:07:00.629Z,34.40
2018-09-20T08:09:28.824Z,32.80
2018-09-20T08:11:57.056Z,32.20
2018-09-20T08:14:25.314Z,30.60
2018-09-20T08:16:53.522Z,30.90
2018-09-20T08:19:22.937Z,31.30
2018-09-20T08:21:51.149Z,31.10
2018-09-20T08:24:19.416Z,31.40
2018-09-20T08:26:47.627Z,31.50
2018-09-20T08:29:15.863Z,32.50
2018-09-20T08:31:44.145Z,32.10
2018-09-20T08:34:12.388Z,32.30
2018-09-20T08:36:40.627Z,32.80
2018-09-20T08:39:10.475Z,32.40
2018-09-20T08:41:38.775Z,32.30
2018-09-20T08:44:07.527Z,32.90
2018-09-20T08:46:35.749Z,31.50
2018-09-20T08:49:03.980Z,31.30
2018-09-20T08:51:32.225Z,31.00
2018-09-20T08:54:00.535Z,30.80
2018-09-20T08:56:28.768Z,29.30
2018-09-20T08:58:56.999Z,30.90
2018-09-20T09:01:25.212Z,31.10
2018-09-20T09:03:53.478Z,31.00
2018-09-20T09:06:21.675Z,30.70
2018-09-20T09:08:49.903Z,31.20
2018-09-20T09:11:18.109Z,31.70
2018-09-20T09:13:46.331Z,30.50
2018-09-20T09:16:14.610Z,30.90
2018-09-20T09:18:42.852Z,30.40
2018-09-20T09:21:11.200Z,30.40
2018-09-20T09:23:39.431Z,30.70
2018-09-20T09:26:07.656Z,31.20
2018-09-20T09:28:36.050Z,30.90
2018-09-20T09:31:04.258Z,31.20
2018-09-20T09:33:32.534Z,31.30
2018-09-20T09:36:00.892Z,31.30
2018-09-20T09:38:29.109Z,33.70
2018-09-20T09:40:57.356Z,34.00
2018-09-20T09:43:25.670Z,34.70
2018-09-20T09:45:53.915Z,33.50
2018-09-20T09:48:22.144Z,32.70
2018-09-20T09:50:50.385Z,32.20
2018-09-20T09:53:18.595Z,34.20
2018-09-20T09:55:46.852Z,37.70
2018-09-20T09:58:15.215Z,39.60
2018-09-20T10:00:43.544Z,40.90
2018-09-20T10:03:11.787Z,42.70
2018-09-20T10:05:40.016Z,42.30
2018-09-20T10:08:08.627Z,42.90
2018-09-20T10:10:36.854Z,43.40
2018-09-20T10:13:05.368Z,43.00
2018-09-20T10:15:33.586Z,42.70
2018-09-20T10:18:02.223Z,43.70
2018-09-20T10:20:30.503Z,43.10
2018-09-20T10:22:58.704Z,43.50
2018-09-20T10:25:26.968Z,43.00
2018-09-20T10:27:55.186Z,43.00
2018-09-20T10:30:23.399Z,42.30
2018-09-20T10:32:51.652Z,42.50
2018-09-20T10:35:21.329Z,43.40
2018-09-20T10:37:49.533Z,44.50
2018-09-20T10:40:17.845Z,42.60
2018-09-20T10:42:46.047Z,43.10
2018-09-20T10:45:14.301Z,43.70
2018-09-20T10:47:42.541Z,44.00
2018-09-20T10:50:10.751Z,43.70
2018-09-20T10:52:39.118Z,44.00
2018-09-20T10:55:07.344Z,44.30
2018-09-20T10:57:35.751Z,44.40
2018-09-20T11:00:04.003Z,44.20
2018-09-20T11:02:32.296Z,44.80
2018-09-20T11:05:00.532Z,44.00
2018-09-20T11:07:28.727Z,45.70
2018-09-20T11:09:56.975Z,43.90
2018-09-20T11:12:25.223Z,43.80
2018-09-20T11:14:53.489Z,43.00
2018-09-20T11:17:21.811Z,43.30
2018-09-20T11:19:50.044Z,42.90
2018-09-20T11:22:18.302Z,43.90
2018-09-20T11:24:46.532Z,43.60
2018-09-20T11:27:14.782Z,43.60
2018-09-20T11:29:42.996Z,43.60
2018-09-20T11:32:11.231Z,43.50
2018-09-20T11:34:39.427Z,44.30
2018-09-20T11:37:07.657Z,44.60
2018-09-20T11:39:35.872Z,44.60
2018-09-20T11:42:04.114Z,45.80
2018-09-20T11:44:32.328Z,44.00
2018-09-20T11:47:00.615Z,44.20
2018-09-20T11:49:28.840Z,44.40
2018-09-20T11:51:57.071Z,44.40
2018-09-20T11:54:25.305Z,44.00
2018-09-20T11:56:53.550Z,44.00
2018-09-20T11:59:21.765Z,44.50
2018-09-20T12:01:50.060Z,45.40
2018-09-20T12:04:18.304Z,45.00
2018-09-20T12:06:46.548Z,44.50
2018-09-20T12:09:14.749Z,45.60
2018-09-20T12:11:43.012Z,45.30
2018-09-20T12:14:11.256Z,45.10
2018-09-20T12:16:39.471Z,44.90
2018-09-20T12:19:07.706Z,44.90
2018-09-20T12:21:35.949Z,44.40
2018-09-20T12:24:04.167Z,44.60
2018-09-20T12:26:32.444Z,44.50
2018-09-20T12:29:00.685Z,43.50
2018-09-20T12:31:29.055Z,43.30
2018-09-20T12:33:57.263Z,43.80
2018-09-20T12:36:25.487Z,43.20
2018-09-20T12:38:53.790Z,43.60
2018-09-20T12:41:21.949Z,43.60
2018-09-20T12:43:50.183Z,43.30
2018-09-20T12:46:18.411Z,43.80
2018-09-20T12:48:46.644Z,44.20
2018-09-20T12:51:14.904Z,43.30
2018-09-20T12:53:43.115Z,44.60
2018-09-20T12:56:11.431Z,44.00
2018-09-20T12:58:45.912Z,44.60
2018-09-20T13:01:14.479Z,44.10
2018-09-20T13:03:42.690Z,44.10
2018-09-20T13:06:10.930Z,43.90
2018-09-20T13:08:39.177Z,44.20
2018-09-20T13:11:07.469Z,43.50
2018-09-20T13:13:35.724Z,44.00
2018-09-20T13:16:03.982Z,44.20
2018-09-20T13:18:32.217Z,44.00
2018-09-20T13:21:00.431Z,43.80
2018-09-20T13:23:28.714Z,44.00
2018-09-20T13:25:56.976Z,44.00
2018-09-20T13:28:25.220Z,43.90
2018-09-20T13:30:53.427Z,44.00
2018-09-20T13:33:21.723Z,44.60
2018-09-20T13:35:49.933Z,44.70
2018-09-20T13:38:18.371Z,44.50
2018-09-20T13:40:46.567Z,44.40
2018-09-20T13:43:14.900Z,44.90
2018-09-20T13:45:43.161Z,44.40
2018-09-20T13:48:11.499Z,44.00
2018-09-20T13:50:39.736Z,43.00
2018-09-20T13:53:07.998Z,43.00
2018-09-20T13:55:36.223Z,44.00
2018-09-20T13:58:04.625Z,44.70
2018-09-20T14:00:32.912Z,43.30
2018-09-20T14:03:01.146Z,43.10
2018-09-20T14:05:29.401Z,43.40
2018-09-20T14:07:57.695Z,43.10
2018-09-20T14:10:26.059Z,42.90
2018-09-20T14:12:54.304Z,43.60
2018-09-20T14:15:22.571Z,44.30
2018-09-20T14:17:50.868Z,44.30
2018-09-20T14:20:19.091Z,43.70
2018-09-20T14:22:47.317Z,43.70
2018-09-20T14:25:15.559Z,43.30
2018-09-20T14:27:43.787Z,42.60
2018-09-20T14:30:12.064Z,42.40
2018-09-20T14:32:40.285Z,42.20
2018-09-20T14:35:08.554Z,42.00
2018-09-20T14:37:36.791Z,41.80
2018-09-20T14:40:05.028Z,41.90
2018-09-20T14:42:33.499Z,42.80
2018-09-20T14:45:01.741Z,42.40
2018-09-20T14:47:29.942Z,41.80
2018-09-20T14:49:58.159Z,42.00
2018-09-20T14:52:26.594Z,42.00
2018-09-20T14:54:54.842Z,42.70
2018-09-20T14:57:23.057Z,42.80
2018-09-20T14:59:51.290Z,42.70
2018-09-20T15:02:19.603Z,43.10
2018-09-20T15:04:47.792Z,43.20
2018-09-20T15:07:16.007Z,43.80
2018-09-20T15:09:44.210Z,42.90
2018-09-20T15:12:12.453Z,43.20
2018-09-20T15:14:40.655Z,43.20
2018-09-20T15:17:08.921Z,44.60
2018-09-20T15:19:37.142Z,43.90
2018-09-20T15:22:05.356Z,43.90
2018-09-20T15:24:33.681Z,44.20
2018-09-20T15:27:01.887Z,44.00
2018-09-20T15:29:31.382Z,43.60
2018-09-20T15:31:59.773Z,43.80
2018-09-20T15:34:27.991Z,44.30
2018-09-20T15:36:56.248Z,43.70
2018-09-20T15:39:24.482Z,43.50
2018-09-20T15:41:52.734Z,43.90
2018-09-20T15:44:20.952Z,43.90
2018-09-20T15:46:49.233Z,43.80
2018-09-20T15:49:17.459Z,44.10
2018-09-20T15:51:45.739Z,44.40
2018-09-20T15:54:13.987Z,44.40
2018-09-20T15:56:42.200Z,44.60
2018-09-20T15:59:10.399Z,44.80
2018-09-20T16:01:38.610Z,45.20
2018-09-20T16:04:06.861Z,45.80
2018-09-20T16:06:35.099Z,45.70
2018-09-20T16:09:04.023Z,46.00
2018-09-20T16:11:32.271Z,46.40
2018-09-20T16:14:00.545Z,46.90
2018-09-20T16:16:28.821Z,47.20
2018-09-20T16:18:57.125Z,47.80
2018-09-20T16:21:25.344Z,48.20
2018-09-20T16:23:53.630Z,48.40
2018-09-20T16:26:21.892Z,48.50
2018-09-20T16:29:00.630Z,48.80
2018-09-20T16:32:17.175Z,49.60
2018-09-20T16:35:06.192Z,50.20
2018-09-20T16:37:51.027Z,50.90
2018-09-20T16:40:20.096Z,51.50
2018-09-20T16:42:50.213Z,53.20
2018-09-20T16:45:18.433Z,55.40
2018-09-20T16:47:46.689Z,56.40
2018-09-20T16:50:14.900Z,57.10
2018-09-20T16:52:43.127Z,57.40
2018-09-20T16:55:11.416Z,58.50
2018-09-20T16:57:39.632Z,58.90
2018-09-20T17:00:09.154Z,59.80
2018-09-20T17:02:37.481Z,60.50
2018-09-20T17:05:05.726Z,61.60
2018-09-20T17:07:33.996Z,63.00
2018-09-20T17:10:02.224Z,64.10
2018-09-20T17:12:30.424Z,65.20
2018-09-20T17:14:58.944Z,66.50
2018-09-20T17:17:27.064Z,67.50
2018-09-20T17:19:55.295Z,68.00
2018-09-20T17:22:23.530Z,68.10
2018-09-20T17:24:52.869Z,69.40
2018-09-20T17:27:21.075Z,70.20
2018-09-20T17:29:49.300Z,71.00
2018-09-20T17:32:17.640Z,71.40
2018-09-20T17:34:46.138Z,72.30
2018-09-20T17:37:14.936Z,72.40
2018-09-20T17:39:43.988Z,73.80
2018-09-20T17:42:12.950Z,75.20
2018-09-20T17:44:41.222Z,76.90
2018-09-20T17:47:09.483Z,77.60
2018-09-20T17:49:37.787Z,79.10
2018-09-20T17:52:06.207Z,79.40
2018-09-20T17:54:35.872Z,81.10
2018-09-20T17:57:04.061Z,81.60
2018-09-20T17:59:32.315Z,83.10
2018-09-20T18:02:00.544Z,85.10
2018-09-20T18:04:28.761Z,87.50
2018-09-20T18:06:57.095Z,89.00
2018-09-20T18:09:25.288Z,90.30
2018-09-20T18:11:53.527Z,90.70
2018-09-20T18:14:21.744Z,91.40
2018-09-20T18:16:49.973Z,91.80
2018-09-20T18:19:18.207Z,92.50
2018-09-20T18:21:46.455Z,92.70
2018-09-20T18:24:14.685Z,92.90
2018-09-20T18:26:42.935Z,93.40
2018-09-20T18:29:11.154Z,94.10
2018-09-20T18:31:39.380Z,94.30
2018-09-20T18:34:07.682Z,95.00
2018-09-20T18:36:35.929Z,95.00
2018-09-20T18:39:05.977Z,95.40
2018-09-20T18:41:34.235Z,95.40
2018-09-20T18:44:02.448Z,95.80
2018-09-20T18:46:30.722Z,96.30
2018-09-20T18:48:58.919Z,96.70
2018-09-20T18:51:27.151Z,97.20
2018-09-20T18:53:55.382Z,97.40
2018-09-20T18:56:23.651Z,97.70
2018-09-20T18:58:51.920Z,98.20
2018-09-20T19:01:20.181Z,98.50
2018-09-20T19:03:48.407Z,98.70
2018-09-20T19:06:16.652Z,99.00
2018-09-20T19:08:44.872Z,99.20
2018-09-20T19:11:13.091Z,99.30
2018-09-20T19:13:41.376Z,99.50
2018-09-20T19:16:09.613Z,99.50
2018-09-20T19:18:37.900Z,99.90
2018-09-20T19:21:06.102Z,99.70
2018-09-20T19:23:34.337Z,99.60
2018-09-20T19:26:02.583Z,99.70
2018-09-20T19:28:30.827Z,99.90
2018-09-20T19:30:59.071Z,99.90
2018-09-20T19:33:27.305Z,99.90
2018-09-20T19:35:55.522Z,99.90
2018-09-20T19:38:23.784Z,99.90
2018-09-20T19:40:52.021Z,99.90
2018-09-20T19:43:20.252Z,99.90
2018-09-20T19:45:48.466Z,99.90
2018-09-20T19:48:16.730Z,99.90
2018-09-20T19:50:44.947Z,99.90
2018-09-20T19:53:13.187Z,99.90
2018-09-20T19:55:41.410Z,99.90
2018-09-20T19:58:09.648Z,99.90
2018-09-20T20:00:38.016Z,99.90
2018-09-20T20:03:06.432Z,99.90
2018-09-20T20:05:34.650Z,99.90
2018-09-20T20:08:02.944Z,99.90
2018-09-20T20:10:31.176Z,99.90
2018-09-20T20:12:59.615Z,99.90
2018-09-20T20:16:03.799Z,99.90
2018-09-20T20:18:32.056Z,99.90
2018-09-20T20:21:00.310Z,99.90
2018-09-20T20:23:28.660Z,99.90
2018-09-20T20:25:56.957Z,99.90
2018-09-20T20:28:25.198Z,99.90
2018-09-20T20:30:53.452Z,99.90
2018-09-20T20:33:21.706Z,99.90
2018-09-20T20:35:49.932Z,99.90
2018-09-20T20:38:18.371Z,99.90
2018-09-20T20:40:46.646Z,99.90
2018-09-20T20:43:14.903Z,99.90
2018-09-20T20:45:43.120Z,99.90
2018-09-20T20:48:11.574Z,99.90
2018-09-20T20:50:39.956Z,99.90
2018-09-20T20:53:08.268Z,99.90
2018-09-20T20:55:37.580Z,99.90
2018-09-20T20:58:05.808Z,99.90
2018-09-20T21:00:34.040Z,99.90
2018-09-20T21:03:02.319Z,99.90
2018-09-20T21:05:30.535Z,99.90
2018-09-20T21:07:58.780Z,99.90
2018-09-20T21:10:26.996Z,99.90
2018-09-20T21:12:55.236Z,99.90
2018-09-20T21:15:23.444Z,99.90
2018-09-20T21:17:51.694Z,99.90
2018-09-20T21:20:19.926Z,99.90
2018-09-20T21:22:48.151Z,99.90
2018-09-20T21:25:16.427Z,99.90
2018-09-20T21:27:44.715Z,99.90
2018-09-20T21:30:12.919Z,99.90
2018-09-20T21:32:41.169Z,99.90
2018-09-20T21:35:09.413Z,99.90
2018-09-20T21:37:37.627Z,99.90
2018-09-20T21:40:05.963Z,99.90
2018-09-20T21:42:34.164Z,99.90
2018-09-20T21:45:02.379Z,99.90
2018-09-20T21:47:30.636Z,99.90
2018-09-20T21:49:58.889Z,99.90
2018-09-20T21:52:27.118Z,99.90
2018-09-20T21:54:55.376Z,99.90
2018-09-20T21:57:23.598Z,99.90
2018-09-20T21:59:53.863Z,99.90
2018-09-20T22:02:27.762Z,99.90
2018-09-20T22:04:56.007Z,99.90
2018-09-20T22:07:24.269Z,99.90
2018-09-20T22:09:52.537Z,99.90
2018-09-20T22:12:20.755Z,99.90
2018-09-20T22:14:49.028Z,99.90
2018-09-20T22:17:17.290Z,99.90
2018-09-20T22:19:45.675Z,99.90
2018-09-20T22:22:13.892Z,99.90
2018-09-20T22:24:42.175Z,99.90
2018-09-20T22:27:10.423Z,99.90
2018-09-20T22:29:38.656Z,99.90
2018-09-20T22:32:06.866Z,99.90
2018-09-20T22:34:35.098Z,99.90
2018-09-20T22:37:03.327Z,99.90
2018-09-20T22:39:31.556Z,99.90
2018-09-20T22:41:59.807Z,99.90
2018-09-20T22:44:28.040Z,99.90
2018-09-20T22:46:56.266Z,99.90
2018-09-20T22:49:24.514Z,99.90
2018-09-20T22:51:52.770Z,99.90
2018-09-20T22:54:20.995Z,99.90
2018-09-20T22:56:49.223Z,99.90
2018-09-20T22:59:17.459Z,99.90
2018-09-20T23:01:45.671Z,99.90
2018-09-20T23:04:13.962Z,99.90
2018-09-20T23:06:42.204Z,99.90
2018-09-20T23:09:10.884Z,99.90
2018-09-20T23:11:39.537Z,99.90
2018-09-20T23:14:07.830Z,99.90
2018-09-20T23:16:36.032Z,99.90
2018-09-20T23:19:04.251Z,99.90
2018-09-20T23:21:32.486Z,99.90
2018-09-20T23:24:00.710Z,99.90
2018-09-20T23:26:28.949Z,99.90
2018-09-20T23:28:57.215Z,99.90
2018-09-20T23:31:25.459Z,99.90
2018-09-20T23:33:53.699Z,99.90
2018-09-20T23:36:21.917Z,99.90
2018-09-20T23:38:50.116Z,99.90
2018-09-20T23:41:18.371Z,99.90
2018-09-20T23:43:46.715Z,99.90
2018-09-20T23:46:14.955Z,99.90
2018-09-20T23:48:43.180Z,99.90
2018-09-20T23:51:11.429Z,99.90
2018-09-20T23:53:39.643Z,99.90
2018-09-20T23:56:07.892Z,99.90
2018-09-20T23:58:36.098Z,99.90
